sensor_id;sensor_type;location;lat;lon;timestamp;pressure;altitude;pressure_sealevel;temperature;humidity
20105;BME280;10212;42.714;23.310;2023-05-01T00:04:36;95153.34;;;9.79;88.37
20105;BME280;10212;42.714;23.310;2023-05-01T00:14:36;95146.94;;;9.74;87.49
20105;BME280;10212;42.714;23.310;2023-05-01T00:24:37;95158.34;;;9.80;88.87
20105;BME280;10212;42.714;23.310;2023-05-01T00:34:37;95168.72;;;9.67;88.80
20105;BME280;10212;42.714;23.310;2023-05-01T00:44:38;95186.06;;;9.46;90.30
20105;BME280;10212;42.714;23.310;2023-05-01T00:54:38;95188.66;;;9.39;89.22
20105;BME280;10212;42.714;23.310;2023-05-01T01:04:41;95199.03;;;8.75;93.43
20105;BME280;10212;42.714;23.310;2023-05-01T01:15:37;95186.03;;;8.75;93.80
20105;BME280;10212;42.714;23.310;2023-05-01T01:25:39;95208.72;;;8.59;95.49
20105;BME280;10212;42.714;23.310;2023-05-01T01:35:53;95212.66;;;8.55;94.86
20105;BME280;10212;42.714;23.310;2023-05-01T01:45:59;95208.81;;;8.29;97.08
20105;BME280;10212;42.714;23.310;2023-05-01T01:56:02;95199.69;;;8.33;97.89
20105;BME280;10212;42.714;23.310;2023-05-01T02:06:06;95197.47;;;8.37;97.99
20105;BME280;10212;42.714;23.310;2023-05-01T02:16:07;95196.50;;;8.38;96.52
20105;BME280;10212;42.714;23.310;2023-05-01T02:26:12;95207.09;;;8.36;94.15
20105;BME280;10212;42.714;23.310;2023-05-01T02:36:16;95203.13;;;8.18;96.06
20105;BME280;10212;42.714;23.310;2023-05-01T02:46:17;95203.06;;;8.12;96.37
20105;BME280;10212;42.714;23.310;2023-05-01T02:56:20;95205.50;;;7.61;99.74
20105;BME280;10212;42.714;23.310;2023-05-01T03:06:20;95210.41;;;7.56;100.00
20105;BME280;10212;42.714;23.310;2023-05-01T03:16:21;95223.59;;;7.39;100.00
20105;BME280;10212;42.714;23.310;2023-05-01T03:26:21;95223.94;;;7.36;100.00
20105;BME280;10212;42.714;23.310;2023-05-01T03:36:22;95235.47;;;7.18;100.00
20105;BME280;10212;42.714;23.310;2023-05-01T03:46:22;95249.28;;;6.95;100.00
20105;BME280;10212;42.714;23.310;2023-05-01T03:56:24;95251.53;;;6.60;100.00
20105;BME280;10212;42.714;23.310;2023-05-01T04:06:27;95254.56;;;6.63;100.00
20105;BME280;10212;42.714;23.310;2023-05-01T04:16:30;95255.19;;;6.89;100.00
20105;BME280;10212;42.714;23.310;2023-05-01T04:26:30;95267.84;;;7.22;100.00
20105;BME280;10212;42.714;23.310;2023-05-01T04:36:31;95270.66;;;7.51;100.00
20105;BME280;10212;42.714;23.310;2023-05-01T04:46:32;95268.56;;;7.77;100.00
20105;BME280;10212;42.714;23.310;2023-05-01T04:56:32;95279.41;;;8.32;100.00
20105;BME280;10212;42.714;23.310;2023-05-01T05:06:33;95290.09;;;8.82;96.88
20105;BME280;10212;42.714;23.310;2023-05-01T05:16:33;95305.94;;;9.09;96.42
20105;BME280;10212;42.714;23.310;2023-05-01T05:26:34;95310.94;;;9.10;95.29
20105;BME280;10212;42.714;23.310;2023-05-01T05:36:34;95317.94;;;9.10;94.56
20105;BME280;10212;42.714;23.310;2023-05-01T05:46:35;95315.44;;;9.52;92.58
20105;BME280;10212;42.714;23.310;2023-05-01T05:56:35;95313.94;;;9.71;92.39
20105;BME280;10212;42.714;23.310;2023-05-01T06:06:35;95323.81;;;10.18;91.33
20105;BME280;10212;42.714;23.310;2023-05-01T06:16:37;95326.97;;;10.56;89.92
20105;BME280;10212;42.714;23.310;2023-05-01T06:26:37;95327.22;;;10.81;88.45
20105;BME280;10212;42.714;23.310;2023-05-01T06:36:38;95327.06;;;11.17;85.88
20105;BME280;10212;42.714;23.310;2023-05-01T06:46:39;95319.22;;;11.44;85.55
20105;BME280;10212;42.714;23.310;2023-05-01T06:56:39;95329.81;;;11.76;83.51
20105;BME280;10212;42.714;23.310;2023-05-01T07:06:40;95335.38;;;12.07;81.58
20105;BME280;10212;42.714;23.310;2023-05-01T07:16:40;95335.06;;;12.42;79.23
20105;BME280;10212;42.714;23.310;2023-05-01T07:26:41;95343.00;;;12.68;76.89
20105;BME280;10212;42.714;23.310;2023-05-01T07:36:43;95341.25;;;12.94;76.64
20105;BME280;10212;42.714;23.310;2023-05-01T07:46:44;95338.88;;;13.44;75.78
20105;BME280;10212;42.714;23.310;2023-05-01T07:56:44;95336.34;;;13.81;71.13
20105;BME280;10212;42.714;23.310;2023-05-01T08:06:45;95325.06;;;14.18;71.07
20105;BME280;10212;42.714;23.310;2023-05-01T08:16:45;95326.88;;;14.67;71.43
20105;BME280;10212;42.714;23.310;2023-05-01T08:26:46;95324.75;;;15.19;69.78
20105;BME280;10212;42.714;23.310;2023-05-01T08:36:48;95320.31;;;15.43;65.37
20105;BME280;10212;42.714;23.310;2023-05-01T08:57:10;95310.88;;;16.20;61.00
20105;BME280;10212;42.714;23.310;2023-05-01T09:07:11;95313.28;;;16.50;60.86
20105;BME280;10212;42.714;23.310;2023-05-01T09:17:12;95313.72;;;16.59;56.72
20105;BME280;10212;42.714;23.310;2023-05-01T09:27:13;95311.56;;;16.85;56.55
20105;BME280;10212;42.714;23.310;2023-05-01T09:37:25;95324.59;;;17.09;55.01
20105;BME280;10212;42.714;23.310;2023-05-01T09:47:29;95311.59;;;17.20;54.57
20105;BME280;10212;42.714;23.310;2023-05-01T09:57:35;95303.41;;;17.73;53.07
20105;BME280;10212;42.714;23.310;2023-05-01T10:07:37;95297.09;;;18.14;49.67
20105;BME280;10212;42.714;23.310;2023-05-01T10:17:39;95294.34;;;18.53;50.66
20105;BME280;10212;42.714;23.310;2023-05-01T10:27:40;95291.59;;;17.98;51.09
20105;BME280;10212;42.714;23.310;2023-05-01T10:37:57;95288.41;;;17.56;51.55
20105;BME280;10212;42.714;23.310;2023-05-01T10:47:59;95276.22;;;17.72;46.83
20105;BME280;10212;42.714;23.310;2023-05-01T10:58:01;95271.47;;;17.92;45.55
20105;BME280;10212;42.714;23.310;2023-05-01T11:08:34;95261.16;;;18.35;45.73
20105;BME280;10212;42.714;23.310;2023-05-01T11:29:14;95276.00;;;19.30;41.00
20105;BME280;10212;42.714;23.310;2023-05-01T11:39:15;95274.50;;;19.44;42.12
20105;BME280;10212;42.714;23.310;2023-05-01T11:49:25;95257.22;;;19.74;41.92
20105;BME280;10212;42.714;23.310;2023-05-01T11:59:27;95255.84;;;20.36;38.79
20105;BME280;10212;42.714;23.310;2023-05-01T12:09:28;95264.44;;;20.90;38.70
20105;BME280;10212;42.714;23.310;2023-05-01T12:19:29;95269.72;;;19.41;43.30
20105;BME280;10212;42.714;23.310;2023-05-01T12:29:39;95275.28;;;18.46;46.78
20105;BME280;10212;42.714;23.310;2023-05-01T12:39:49;95280.34;;;18.25;48.83
20105;BME280;10212;42.714;23.310;2023-05-01T12:50:01;95269.75;;;19.46;45.49
20105;BME280;10212;42.714;23.310;2023-05-01T13:00:03;95267.56;;;20.51;40.66
20105;BME280;10212;42.714;23.310;2023-05-01T13:10:04;95271.84;;;20.67;42.07
20105;BME280;10212;42.714;23.310;2023-05-01T13:20:06;95293.56;;;20.69;42.09
20105;BME280;10212;42.714;23.310;2023-05-01T13:30:09;95280.03;;;20.66;40.13
20105;BME280;10212;42.714;23.310;2023-05-01T13:40:10;95290.97;;;21.01;38.06
20105;BME280;10212;42.714;23.310;2023-05-01T13:50:13;95311.63;;;21.09;37.79
20105;BME280;10212;42.714;23.310;2023-05-01T14:00:16;95319.50;;;20.67;37.89
20105;BME280;10212;42.714;23.310;2023-05-01T14:10:16;95314.78;;;19.57;40.91
20105;BME280;10212;42.714;23.310;2023-05-01T14:20:17;95313.41;;;19.97;41.00
20105;BME280;10212;42.714;23.310;2023-05-01T14:30:31;95307.72;;;19.73;40.81
20105;BME280;10212;42.714;23.310;2023-05-01T14:40:32;95305.84;;;19.68;41.61
20105;BME280;10212;42.714;23.310;2023-05-01T14:50:33;95294.66;;;19.50;41.66
20105;BME280;10212;42.714;23.310;2023-05-01T15:00:34;95287.38;;;19.73;40.69
20105;BME280;10212;42.714;23.310;2023-05-01T15:10:35;95295.06;;;19.37;41.63
20105;BME280;10212;42.714;23.310;2023-05-01T15:20:36;95303.53;;;19.39;41.31
20105;BME280;10212;42.714;23.310;2023-05-01T15:30:37;95293.63;;;19.19;42.68
20105;BME280;10212;42.714;23.310;2023-05-01T15:40:37;95295.69;;;18.84;43.84
20105;BME280;10212;42.714;23.310;2023-05-01T15:50:38;95293.13;;;18.39;45.05
20105;BME280;10212;42.714;23.310;2023-05-01T16:00:38;95288.72;;;18.22;44.75
20105;BME280;10212;42.714;23.310;2023-05-01T16:10:38;95294.53;;;18.02;45.65
20105;BME280;10212;42.714;23.310;2023-05-01T16:20:41;95301.97;;;17.65;46.63
20105;BME280;10212;42.714;23.310;2023-05-01T16:30:42;95305.06;;;17.40;46.98
20105;BME280;10212;42.714;23.310;2023-05-01T16:40:44;95313.22;;;17.21;47.70
20105;BME280;10212;42.714;23.310;2023-05-01T16:50:45;95317.78;;;16.96;49.06
20105;BME280;10212;42.714;23.310;2023-05-01T17:00:45;95327.34;;;16.85;50.08
20105;BME280;10212;42.714;23.310;2023-05-01T17:10:46;95333.44;;;16.57;51.99
20105;BME280;10212;42.714;23.310;2023-05-01T17:20:46;95339.91;;;16.37;53.21
20105;BME280;10212;42.714;23.310;2023-05-01T17:30:47;95356.97;;;15.98;54.24
20105;BME280;10212;42.714;23.310;2023-05-01T17:40:48;95367.06;;;15.89;55.22
20105;BME280;10212;42.714;23.310;2023-05-01T17:50:48;95379.63;;;15.75;55.87
20105;BME280;10212;42.714;23.310;2023-05-01T18:00:48;95390.03;;;15.82;55.69
20105;BME280;10212;42.714;23.310;2023-05-01T18:10:49;95403.06;;;15.65;56.22
20105;BME280;10212;42.714;23.310;2023-05-01T18:20:50;95403.34;;;15.45;57.44
20105;BME280;10212;42.714;23.310;2023-05-01T18:30:50;95419.47;;;15.36;57.77
20105;BME280;10212;42.714;23.310;2023-05-01T18:40:51;95421.25;;;15.24;58.50
20105;BME280;10212;42.714;23.310;2023-05-01T18:50:51;95438.34;;;15.14;58.32
20105;BME280;10212;42.714;23.310;2023-05-01T19:00:53;95445.69;;;14.93;59.40
20105;BME280;10212;42.714;23.310;2023-05-01T19:10:54;95461.72;;;14.66;60.95
20105;BME280;10212;42.714;23.310;2023-05-01T19:20:54;95465.59;;;14.45;62.54
20105;BME280;10212;42.714;23.310;2023-05-01T19:30:55;95488.03;;;13.96;63.06
20105;BME280;10212;42.714;23.310;2023-05-01T19:40:55;95482.22;;;13.62;64.09
20105;BME280;10212;42.714;23.310;2023-05-01T19:50:56;95476.25;;;13.55;64.41
20105;BME280;10212;42.714;23.310;2023-05-01T20:00:56;95483.31;;;13.47;64.63
20105;BME280;10212;42.714;23.310;2023-05-01T20:11:01;95484.47;;;13.19;65.90
20105;BME280;10212;42.714;23.310;2023-05-01T20:21:01;95470.66;;;12.98;67.31
20105;BME280;10212;42.714;23.310;2023-05-01T20:31:02;95479.94;;;12.94;67.36
20105;BME280;10212;42.714;23.310;2023-05-01T20:41:02;95494.03;;;12.93;67.05
20105;BME280;10212;42.714;23.310;2023-05-01T20:51:03;95492.66;;;12.90;66.92
20105;BME280;10212;42.714;23.310;2023-05-01T21:01:03;95495.91;;;12.86;66.35
20105;BME280;10212;42.714;23.310;2023-05-01T21:11:04;95500.38;;;12.58;67.68
20105;BME280;10212;42.714;23.310;2023-05-01T21:21:04;95506.66;;;12.37;68.76
20105;BME280;10212;42.714;23.310;2023-05-01T21:31:05;95506.09;;;12.21;68.85
20105;BME280;10212;42.714;23.310;2023-05-01T21:41:05;95512.91;;;11.95;70.37
20105;BME280;10212;42.714;23.310;2023-05-01T21:51:06;95515.28;;;11.76;71.63
20105;BME280;10212;42.714;23.310;2023-05-01T22:01:07;95522.91;;;11.64;72.49
20105;BME280;10212;42.714;23.310;2023-05-01T22:11:08;95538.63;;;11.78;72.74
20105;BME280;10212;42.714;23.310;2023-05-01T22:21:08;95544.63;;;11.51;73.86
20105;BME280;10212;42.714;23.310;2023-05-01T22:31:09;95548.41;;;11.49;74.24
20105;BME280;10212;42.714;23.310;2023-05-01T22:41:09;95534.53;;;11.41;74.69
20105;BME280;10212;42.714;23.310;2023-05-01T22:51:10;95530.50;;;11.39;75.08
20105;BME280;10212;42.714;23.310;2023-05-01T23:01:11;95530.50;;;11.39;75.48
20105;BME280;10212;42.714;23.310;2023-05-01T23:11:14;95516.41;;;11.26;76.13
20105;BME280;10212;42.714;23.310;2023-05-01T23:21:17;95498.72;;;11.15;76.67
20105;BME280;10212;42.714;23.310;2023-05-01T23:31:25;95506.94;;;11.12;77.23
20105;BME280;10212;42.714;23.310;2023-05-01T23:41:27;95503.09;;;11.07;77.50
20105;BME280;10212;42.714;23.310;2023-05-01T23:51:27;95496.28;;;11.06;77.90
